sensor_id;sensor_type;location;lat;lon;timestamp;temperature;humidity
23637;DHT22;11995;50.842;4.456;2022-08-04T00:02:31;24.40;99.90
23637;DHT22;11995;50.842;4.456;2022-08-04T00:05:08;24.40;99.90
23637;DHT22;11995;50.842;4.456;2022-08-04T00:10:16;24.40;99.90
23637;DHT22;11995;50.842;4.456;2022-08-04T00:12:48;24.40;99.90
23637;DHT22;11995;50.842;4.456;2022-08-04T00:15:16;24.40;99.90
23637;DHT22;11995;50.842;4.456;2022-08-04T00:17:44;24.30;99.90
23637;DHT22;11995;50.842;4.456;2022-08-04T00:20:11;24.30;99.90
23637;DHT22;11995;50.842;4.456;2022-08-04T00:22:39;24.30;99.90
23637;DHT22;11995;50.842;4.456;2022-08-04T00:25:07;24.30;99.90
23637;DHT22;11995;50.842;4.456;2022-08-04T00:27:34;24.30;99.90
23637;DHT22;11995;50.842;4.456;2022-08-04T00:30:01;24.30;99.90
23637;DHT22;11995;50.842;4.456;2022-08-04T00:32:28;24.10;99.90
23637;DHT22;11995;50.842;4.456;2022-08-04T00:34:56;24.00;99.90
23637;DHT22;11995;50.842;4.456;2022-08-04T00:37:24;24.00;99.90
23637;DHT22;11995;50.842;4.456;2022-08-04T00:39:54;24.00;99.90
23637;DHT22;11995;50.842;4.456;2022-08-04T00:50:44;24.20;99.90
23637;DHT22;11995;50.842;4.456;2022-08-04T00:55:53;24.10;99.90
23637;DHT22;11995;50.842;4.456;2022-08-04T01:00:54;24.10;99.90
23637;DHT22;11995;50.842;4.456;2022-08-04T01:11:13;23.90;99.90
23637;DHT22;11995;50.842;4.456;2022-08-04T01:16:10;23.90;99.90
23637;DHT22;11995;50.842;4.456;2022-08-04T01:24:04;23.50;99.90
23637;DHT22;11995;50.842;4.456;2022-08-04T01:29:11;23.40;99.90
23637;DHT22;11995;50.842;4.456;2022-08-04T01:31:41;23.40;99.90
23637;DHT22;11995;50.842;4.456;2022-08-04T01:34:09;23.40;99.90
23637;DHT22;11995;50.842;4.456;2022-08-04T01:36:35;23.40;99.90
23637;DHT22;11995;50.842;4.456;2022-08-04T01:39:03;23.50;99.90
23637;DHT22;11995;50.842;4.456;2022-08-04T01:41:48;23.40;99.90
23637;DHT22;11995;50.842;4.456;2022-08-04T01:44:16;23.40;99.90
23637;DHT22;11995;50.842;4.456;2022-08-04T01:46:45;23.50;99.90
23637;DHT22;11995;50.842;4.456;2022-08-04T01:49:13;23.40;99.90
23637;DHT22;11995;50.842;4.456;2022-08-04T01:51:39;23.50;99.90
23637;DHT22;11995;50.842;4.456;2022-08-04T01:54:07;23.50;99.90
23637;DHT22;11995;50.842;4.456;2022-08-04T01:56:34;23.40;99.90
23637;DHT22;11995;50.842;4.456;2022-08-04T01:59:02;23.50;99.90
23637;DHT22;11995;50.842;4.456;2022-08-04T02:01:31;23.30;99.90
23637;DHT22;11995;50.842;4.456;2022-08-04T02:03:57;23.40;99.90
23637;DHT22;11995;50.842;4.456;2022-08-04T02:06:31;23.30;99.90
23637;DHT22;11995;50.842;4.456;2022-08-04T02:11:48;23.30;99.90
23637;DHT22;11995;50.842;4.456;2022-08-04T02:16:49;23.20;99.90
23637;DHT22;11995;50.842;4.456;2022-08-04T02:21:47;23.00;99.90
23637;DHT22;11995;50.842;4.456;2022-08-04T02:24:17;23.00;99.90
23637;DHT22;11995;50.842;4.456;2022-08-04T02:26:45;23.10;99.90
23637;DHT22;11995;50.842;4.456;2022-08-04T02:31:47;23.00;99.90
23637;DHT22;11995;50.842;4.456;2022-08-04T02:36:59;22.90;99.90
23637;DHT22;11995;50.842;4.456;2022-08-04T02:39:30;22.80;99.90
23637;DHT22;11995;50.842;4.456;2022-08-04T02:41:56;22.90;99.90
23637;DHT22;11995;50.842;4.456;2022-08-04T02:44:25;22.90;99.90
23637;DHT22;11995;50.842;4.456;2022-08-04T02:46:53;22.80;99.90
23637;DHT22;11995;50.842;4.456;2022-08-04T02:49:20;22.80;99.90
23637;DHT22;11995;50.842;4.456;2022-08-04T02:51:52;22.80;99.90
23637;DHT22;11995;50.842;4.456;2022-08-04T02:54:21;22.80;99.90
23637;DHT22;11995;50.842;4.456;2022-08-04T02:56:47;22.70;99.90
23637;DHT22;11995;50.842;4.456;2022-08-04T02:59:15;22.70;99.90
23637;DHT22;11995;50.842;4.456;2022-08-04T03:01:43;22.60;99.90
23637;DHT22;11995;50.842;4.456;2022-08-04T03:06:52;22.50;99.90
23637;DHT22;11995;50.842;4.456;2022-08-04T03:12:04;22.50;99.90
23637;DHT22;11995;50.842;4.456;2022-08-04T03:17:15;22.40;99.90
23637;DHT22;11995;50.842;4.456;2022-08-04T03:22:28;22.40;99.90
23637;DHT22;11995;50.842;4.456;2022-08-04T03:25:39;22.30;99.90
23637;DHT22;11995;50.842;4.456;2022-08-04T03:27:31;22.20;99.90
23637;DHT22;11995;50.842;4.456;2022-08-04T03:30:06;22.30;99.90
23637;DHT22;11995;50.842;4.456;2022-08-04T03:40:57;22.40;99.90
23637;DHT22;11995;50.842;4.456;2022-08-04T03:51:17;22.60;99.90
23637;DHT22;11995;50.842;4.456;2022-08-04T03:56:39;22.60;99.90
23637;DHT22;11995;50.842;4.456;2022-08-04T04:01:58;22.60;99.90
23637;DHT22;11995;50.842;4.456;2022-08-04T04:15:37;22.80;99.90
23637;DHT22;11995;50.842;4.456;2022-08-04T04:18:13;22.80;99.90
23637;DHT22;11995;50.842;4.456;2022-08-04T04:20:46;22.90;99.90
23637;DHT22;11995;50.842;4.456;2022-08-04T04:36:29;22.90;99.90
23637;DHT22;11995;50.842;4.456;2022-08-04T04:39:13;22.80;99.90
23637;DHT22;11995;50.842;4.456;2022-08-04T04:46:55;22.90;99.90
23637;DHT22;11995;50.842;4.456;2022-08-04T04:52:04;22.90;99.90
23637;DHT22;11995;50.842;4.456;2022-08-04T04:54:32;22.90;99.90
23637;DHT22;11995;50.842;4.456;2022-08-04T04:57:06;22.90;99.90
23637;DHT22;11995;50.842;4.456;2022-08-04T04:59:33;22.70;99.90
23637;DHT22;11995;50.842;4.456;2022-08-04T05:02:26;22.70;99.90
23637;DHT22;11995;50.842;4.456;2022-08-04T05:12:20;22.80;99.90
23637;DHT22;11995;50.842;4.456;2022-08-04T05:14:46;22.90;99.90
23637;DHT22;11995;50.842;4.456;2022-08-04T05:17:48;22.90;99.90
23637;DHT22;11995;50.842;4.456;2022-08-04T05:19:53;22.90;99.90
23637;DHT22;11995;50.842;4.456;2022-08-04T05:22:21;23.00;99.90
23637;DHT22;11995;50.842;4.456;2022-08-04T05:24:48;23.00;99.90
23637;DHT22;11995;50.842;4.456;2022-08-04T05:27:18;22.90;99.90
23637;DHT22;11995;50.842;4.456;2022-08-04T05:29:47;23.00;99.90
23637;DHT22;11995;50.842;4.456;2022-08-04T05:32:13;23.10;99.90
23637;DHT22;11995;50.842;4.456;2022-08-04T05:34:44;23.20;99.90
23637;DHT22;11995;50.842;4.456;2022-08-04T05:37:14;23.30;99.90
23637;DHT22;11995;50.842;4.456;2022-08-04T05:39:42;23.20;99.90
23637;DHT22;11995;50.842;4.456;2022-08-04T05:42:08;23.20;99.90
23637;DHT22;11995;50.842;4.456;2022-08-04T05:44:37;23.20;99.90
23637;DHT22;11995;50.842;4.456;2022-08-04T05:47:04;23.30;99.90
23637;DHT22;11995;50.842;4.456;2022-08-04T05:49:32;23.20;99.90
23637;DHT22;11995;50.842;4.456;2022-08-04T05:52:00;23.30;99.90
23637;DHT22;11995;50.842;4.456;2022-08-04T05:54:32;23.20;99.90
23637;DHT22;11995;50.842;4.456;2022-08-04T05:56:59;23.10;99.90
23637;DHT22;11995;50.842;4.456;2022-08-04T05:59:27;23.00;99.90
23637;DHT22;11995;50.842;4.456;2022-08-04T06:01:56;23.10;99.90
23637;DHT22;11995;50.842;4.456;2022-08-04T06:04:30;23.30;99.90
23637;DHT22;11995;50.842;4.456;2022-08-04T06:06:52;23.30;99.90
23637;DHT22;11995;50.842;4.456;2022-08-04T06:09:19;23.40;99.90
23637;DHT22;11995;50.842;4.456;2022-08-04T06:11:46;23.50;99.90
23637;DHT22;11995;50.842;4.456;2022-08-04T06:14:15;23.60;99.90
23637;DHT22;11995;50.842;4.456;2022-08-04T06:16:42;23.70;99.90
23637;DHT22;11995;50.842;4.456;2022-08-04T06:19:13;23.70;99.90
23637;DHT22;11995;50.842;4.456;2022-08-04T06:21:42;23.80;99.90
23637;DHT22;11995;50.842;4.456;2022-08-04T06:24:10;24.00;99.90
23637;DHT22;11995;50.842;4.456;2022-08-04T06:26:37;24.00;99.90
23637;DHT22;11995;50.842;4.456;2022-08-04T06:29:05;24.10;99.90
23637;DHT22;11995;50.842;4.456;2022-08-04T06:31:34;24.10;99.90
23637;DHT22;11995;50.842;4.456;2022-08-04T06:34:15;24.30;99.90
23637;DHT22;11995;50.842;4.456;2022-08-04T06:36:43;24.20;99.90
23637;DHT22;11995;50.842;4.456;2022-08-04T06:39:12;24.50;99.90
23637;DHT22;11995;50.842;4.456;2022-08-04T06:41:39;24.60;99.90
23637;DHT22;11995;50.842;4.456;2022-08-04T06:44:09;24.80;99.90
23637;DHT22;11995;50.842;4.456;2022-08-04T06:46:37;25.10;99.90
23637;DHT22;11995;50.842;4.456;2022-08-04T06:49:05;25.10;99.90
23637;DHT22;11995;50.842;4.456;2022-08-04T06:51:33;25.10;99.90
23637;DHT22;11995;50.842;4.456;2022-08-04T06:54:00;25.10;99.90
23637;DHT22;11995;50.842;4.456;2022-08-04T06:56:27;25.10;99.90
23637;DHT22;11995;50.842;4.456;2022-08-04T06:58:55;25.00;99.90
23637;DHT22;11995;50.842;4.456;2022-08-04T07:01:23;25.20;99.90
23637;DHT22;11995;50.842;4.456;2022-08-04T07:03:51;25.60;99.90
23637;DHT22;11995;50.842;4.456;2022-08-04T07:06:20;25.80;99.90
23637;DHT22;11995;50.842;4.456;2022-08-04T07:08:47;25.80;99.90
23637;DHT22;11995;50.842;4.456;2022-08-04T07:11:14;26.00;99.90
23637;DHT22;11995;50.842;4.456;2022-08-04T07:13:42;26.00;99.90
23637;DHT22;11995;50.842;4.456;2022-08-04T07:16:11;25.90;99.90
23637;DHT22;11995;50.842;4.456;2022-08-04T07:18:40;25.70;99.90
23637;DHT22;11995;50.842;4.456;2022-08-04T07:21:06;25.60;99.90
23637;DHT22;11995;50.842;4.456;2022-08-04T07:23:35;25.40;99.90
23637;DHT22;11995;50.842;4.456;2022-08-04T07:26:02;25.30;99.90
23637;DHT22;11995;50.842;4.456;2022-08-04T07:28:28;25.30;99.90
23637;DHT22;11995;50.842;4.456;2022-08-04T07:30:56;25.40;99.90
23637;DHT22;11995;50.842;4.456;2022-08-04T07:33:23;25.30;99.90
23637;DHT22;11995;50.842;4.456;2022-08-04T07:35:51;25.50;99.90
23637;DHT22;11995;50.842;4.456;2022-08-04T07:38:19;25.40;99.90
23637;DHT22;11995;50.842;4.456;2022-08-04T07:40:46;25.50;99.90
23637;DHT22;11995;50.842;4.456;2022-08-04T07:43:15;25.40;99.90
23637;DHT22;11995;50.842;4.456;2022-08-04T07:45:42;25.20;99.90
23637;DHT22;11995;50.842;4.456;2022-08-04T07:48:09;25.00;99.90
23637;DHT22;11995;50.842;4.456;2022-08-04T07:50:37;25.10;99.90
23637;DHT22;11995;50.842;4.456;2022-08-04T07:53:05;25.10;99.90
23637;DHT22;11995;50.842;4.456;2022-08-04T07:55:32;25.10;99.90
23637;DHT22;11995;50.842;4.456;2022-08-04T07:57:59;25.10;99.90
23637;DHT22;11995;50.842;4.456;2022-08-04T08:00:26;25.10;99.90
23637;DHT22;11995;50.842;4.456;2022-08-04T08:02:54;25.10;99.90
23637;DHT22;11995;50.842;4.456;2022-08-04T08:05:22;25.10;99.90
23637;DHT22;11995;50.842;4.456;2022-08-04T08:07:49;25.40;99.90
23637;DHT22;11995;50.842;4.456;2022-08-04T08:10:16;25.40;99.90
23637;DHT22;11995;50.842;4.456;2022-08-04T08:12:43;25.40;99.90
23637;DHT22;11995;50.842;4.456;2022-08-04T08:15:11;25.20;99.90
23637;DHT22;11995;50.842;4.456;2022-08-04T08:17:38;25.10;99.90
23637;DHT22;11995;50.842;4.456;2022-08-04T08:20:05;24.90;99.90
23637;DHT22;11995;50.842;4.456;2022-08-04T08:22:32;25.00;99.90
23637;DHT22;11995;50.842;4.456;2022-08-04T08:24:59;24.90;99.90
23637;DHT22;11995;50.842;4.456;2022-08-04T08:27:26;24.90;99.90
23637;DHT22;11995;50.842;4.456;2022-08-04T08:29:52;24.80;99.90
23637;DHT22;11995;50.842;4.456;2022-08-04T08:32:20;24.60;99.90
23637;DHT22;11995;50.842;4.456;2022-08-04T08:34:47;24.40;99.90
23637;DHT22;11995;50.842;4.456;2022-08-04T08:45:49;24.50;99.90
23637;DHT22;11995;50.842;4.456;2022-08-04T08:50:03;24.60;99.90
23637;DHT22;11995;50.842;4.456;2022-08-04T09:00:41;24.20;99.90
23637;DHT22;11995;50.842;4.456;2022-08-04T09:06:00;24.10;99.90
23637;DHT22;11995;50.842;4.456;2022-08-04T09:10:56;24.20;99.90
23637;DHT22;11995;50.842;4.456;2022-08-04T09:16:10;24.40;99.90
23637;DHT22;11995;50.842;4.456;2022-08-04T09:19:38;24.40;99.90
23637;DHT22;11995;50.842;4.456;2022-08-04T09:29:07;24.20;99.90
23637;DHT22;11995;50.842;4.456;2022-08-04T09:31:58;24.00;99.90
23637;DHT22;11995;50.842;4.456;2022-08-04T09:36:50;23.90;99.90
23637;DHT22;11995;50.842;4.456;2022-08-04T09:39:21;23.90;99.90
23637;DHT22;11995;50.842;4.456;2022-08-04T09:42:00;23.90;99.90
23637;DHT22;11995;50.842;4.456;2022-08-04T09:44:30;23.80;99.90
23637;DHT22;11995;50.842;4.456;2022-08-04T09:52:08;23.50;99.90
23637;DHT22;11995;50.842;4.456;2022-08-04T09:57:30;23.80;99.90
23637;DHT22;11995;50.842;4.456;2022-08-04T09:59:57;23.80;99.90
23637;DHT22;11995;50.842;4.456;2022-08-04T10:02:24;23.60;99.90
23637;DHT22;11995;50.842;4.456;2022-08-04T10:04:52;23.50;99.90
23637;DHT22;11995;50.842;4.456;2022-08-04T10:07:28;23.50;99.90
23637;DHT22;11995;50.842;4.456;2022-08-04T10:09:56;23.70;99.90
23637;DHT22;11995;50.842;4.456;2022-08-04T10:15:02;23.90;99.90
23637;DHT22;11995;50.842;4.456;2022-08-04T10:22:45;24.60;99.90
23637;DHT22;11995;50.842;4.456;2022-08-04T10:27:58;24.90;99.90
23637;DHT22;11995;50.842;4.456;2022-08-04T10:30:25;25.10;99.90
23637;DHT22;11995;50.842;4.456;2022-08-04T10:35:24;25.20;99.90
23637;DHT22;11995;50.842;4.456;2022-08-04T10:40:29;25.20;99.90
23637;DHT22;11995;50.842;4.456;2022-08-04T10:43:04;24.90;99.90
23637;DHT22;11995;50.842;4.456;2022-08-04T10:45:39;24.60;99.90
23637;DHT22;11995;50.842;4.456;2022-08-04T10:50:35;24.60;99.90
23637;DHT22;11995;50.842;4.456;2022-08-04T10:53:04;24.60;99.90
23637;DHT22;11995;50.842;4.456;2022-08-04T10:55:35;24.70;99.90
23637;DHT22;11995;50.842;4.456;2022-08-04T10:58:00;24.80;99.90
23637;DHT22;11995;50.842;4.456;2022-08-04T11:00:28;24.80;99.90
23637;DHT22;11995;50.842;4.456;2022-08-04T11:03:06;25.00;99.90
23637;DHT22;11995;50.842;4.456;2022-08-04T11:08:07;25.40;99.90
23637;DHT22;11995;50.842;4.456;2022-08-04T11:10:36;25.60;99.90
23637;DHT22;11995;50.842;4.456;2022-08-04T11:13:04;25.80;99.90
23637;DHT22;11995;50.842;4.456;2022-08-04T11:15:39;26.00;99.90
23637;DHT22;11995;50.842;4.456;2022-08-04T11:18:08;26.10;99.90
23637;DHT22;11995;50.842;4.456;2022-08-04T11:20:35;26.10;99.90
23637;DHT22;11995;50.842;4.456;2022-08-04T11:23:10;26.30;99.90
23637;DHT22;11995;50.842;4.456;2022-08-04T11:31:04;26.10;99.90
23637;DHT22;11995;50.842;4.456;2022-08-04T11:36:07;25.70;99.90
23637;DHT22;11995;50.842;4.456;2022-08-04T11:38:40;26.00;99.90
23637;DHT22;11995;50.842;4.456;2022-08-04T11:41:09;25.90;99.90
23637;DHT22;11995;50.842;4.456;2022-08-04T11:43:55;25.90;99.90
23637;DHT22;11995;50.842;4.456;2022-08-04T11:46:29;25.80;99.90
23637;DHT22;11995;50.842;4.456;2022-08-04T11:49:09;26.00;99.90
23637;DHT22;11995;50.842;4.456;2022-08-04T11:51:36;26.20;99.90
23637;DHT22;11995;50.842;4.456;2022-08-04T11:54:04;26.00;99.90
23637;DHT22;11995;50.842;4.456;2022-08-04T11:56:30;26.10;99.90
23637;DHT22;11995;50.842;4.456;2022-08-04T11:58:58;26.20;99.90
23637;DHT22;11995;50.842;4.456;2022-08-04T12:01:35;26.10;99.90
23637;DHT22;11995;50.842;4.456;2022-08-04T12:04:16;26.30;99.90
23637;DHT22;11995;50.842;4.456;2022-08-04T12:06:41;26.20;99.90
23637;DHT22;11995;50.842;4.456;2022-08-04T12:09:25;26.50;99.90
23637;DHT22;11995;50.842;4.456;2022-08-04T12:20:03;26.80;99.90
23637;DHT22;11995;50.842;4.456;2022-08-04T12:22:39;26.90;99.90
23637;DHT22;11995;50.842;4.456;2022-08-04T12:25:05;27.10;99.90
23637;DHT22;11995;50.842;4.456;2022-08-04T12:27:33;27.10;99.90
23637;DHT22;11995;50.842;4.456;2022-08-04T12:29:57;27.00;99.90
23637;DHT22;11995;50.842;4.456;2022-08-04T12:32:40;26.90;99.90
23637;DHT22;11995;50.842;4.456;2022-08-04T12:37:37;26.50;99.90
23637;DHT22;11995;50.842;4.456;2022-08-04T12:40:05;26.50;99.90
23637;DHT22;11995;50.842;4.456;2022-08-04T12:42:33;26.30;99.90
23637;DHT22;11995;50.842;4.456;2022-08-04T12:45:02;26.50;99.90
23637;DHT22;11995;50.842;4.456;2022-08-04T12:47:29;26.50;99.90
23637;DHT22;11995;50.842;4.456;2022-08-04T12:49:59;26.70;99.90
23637;DHT22;11995;50.842;4.456;2022-08-04T12:52:39;26.90;99.90
23637;DHT22;11995;50.842;4.456;2022-08-04T12:54:56;26.90;99.90
23637;DHT22;11995;50.842;4.456;2022-08-04T12:57:23;26.90;99.90
23637;DHT22;11995;50.842;4.456;2022-08-04T12:59:51;27.10;99.90
23637;DHT22;11995;50.842;4.456;2022-08-04T13:02:22;27.10;99.90
23637;DHT22;11995;50.842;4.456;2022-08-04T13:04:46;27.00;99.90
23637;DHT22;11995;50.842;4.456;2022-08-04T13:07:14;26.90;99.90
23637;DHT22;11995;50.842;4.456;2022-08-04T13:09:41;26.90;99.90
23637;DHT22;11995;50.842;4.456;2022-08-04T13:12:16;27.00;99.90
23637;DHT22;11995;50.842;4.456;2022-08-04T13:14:45;27.20;99.90
23637;DHT22;11995;50.842;4.456;2022-08-04T13:17:11;27.30;99.90
23637;DHT22;11995;50.842;4.456;2022-08-04T13:19:38;27.30;99.90
23637;DHT22;11995;50.842;4.456;2022-08-04T13:22:07;27.40;99.90
23637;DHT22;11995;50.842;4.456;2022-08-04T13:24:34;27.40;99.90
23637;DHT22;11995;50.842;4.456;2022-08-04T13:27:03;27.50;99.90
23637;DHT22;11995;50.842;4.456;2022-08-04T13:29:33;27.60;99.90
23637;DHT22;11995;50.842;4.456;2022-08-04T13:32:01;27.80;99.90
23637;DHT22;11995;50.842;4.456;2022-08-04T13:34:28;27.70;99.90
23637;DHT22;11995;50.842;4.456;2022-08-04T13:36:56;27.90;99.90
23637;DHT22;11995;50.842;4.456;2022-08-04T13:39:23;28.30;99.90
23637;DHT22;11995;50.842;4.456;2022-08-04T13:41:52;28.20;99.90
23637;DHT22;11995;50.842;4.456;2022-08-04T13:44:20;28.40;99.90
23637;DHT22;11995;50.842;4.456;2022-08-04T13:46:52;28.60;99.90
23637;DHT22;11995;50.842;4.456;2022-08-04T13:49:20;28.50;99.90
23637;DHT22;11995;50.842;4.456;2022-08-04T13:51:52;28.30;99.90
23637;DHT22;11995;50.842;4.456;2022-08-04T13:54:15;28.20;99.90
23637;DHT22;11995;50.842;4.456;2022-08-04T13:56:44;28.30;99.90
23637;DHT22;11995;50.842;4.456;2022-08-04T13:59:10;28.40;99.90
23637;DHT22;11995;50.842;4.456;2022-08-04T14:01:44;28.70;99.90
23637;DHT22;11995;50.842;4.456;2022-08-04T14:04:17;28.80;99.90
23637;DHT22;11995;50.842;4.456;2022-08-04T14:06:49;28.80;99.90
23637;DHT22;11995;50.842;4.456;2022-08-04T14:09:17;28.70;99.90
23637;DHT22;11995;50.842;4.456;2022-08-04T14:11:45;28.50;99.90
23637;DHT22;11995;50.842;4.456;2022-08-04T14:14:20;28.40;99.90
23637;DHT22;11995;50.842;4.456;2022-08-04T14:16:56;28.60;99.90
23637;DHT22;11995;50.842;4.456;2022-08-04T14:19:24;28.80;99.90
23637;DHT22;11995;50.842;4.456;2022-08-04T14:21:51;29.00;99.90
23637;DHT22;11995;50.842;4.456;2022-08-04T14:24:26;29.00;99.90
23637;DHT22;11995;50.842;4.456;2022-08-04T14:26:51;29.00;99.90
23637;DHT22;11995;50.842;4.456;2022-08-04T14:29:18;28.70;99.90
23637;DHT22;11995;50.842;4.456;2022-08-04T14:31:49;28.50;99.90
23637;DHT22;11995;50.842;4.456;2022-08-04T14:34:25;28.40;99.90
23637;DHT22;11995;50.842;4.456;2022-08-04T14:36:54;28.70;99.90
23637;DHT22;11995;50.842;4.456;2022-08-04T14:42:07;28.90;99.90
23637;DHT22;11995;50.842;4.456;2022-08-04T14:44:56;28.50;99.90
23637;DHT22;11995;50.842;4.456;2022-08-04T14:47:02;28.50;99.90
23637;DHT22;11995;50.842;4.456;2022-08-04T14:49:29;28.40;99.90
23637;DHT22;11995;50.842;4.456;2022-08-04T14:51:57;28.40;99.90
23637;DHT22;11995;50.842;4.456;2022-08-04T14:54:29;28.30;99.90
23637;DHT22;11995;50.842;4.456;2022-08-04T14:56:57;28.30;99.90
23637;DHT22;11995;50.842;4.456;2022-08-04T14:59:24;28.40;99.90
23637;DHT22;11995;50.842;4.456;2022-08-04T15:01:51;28.50;99.90
23637;DHT22;11995;50.842;4.456;2022-08-04T15:04:18;28.70;99.90
23637;DHT22;11995;50.842;4.456;2022-08-04T15:06:46;28.90;99.90
23637;DHT22;11995;50.842;4.456;2022-08-04T15:09:13;28.80;99.90
23637;DHT22;11995;50.842;4.456;2022-08-04T15:11:40;28.40;99.90
23637;DHT22;11995;50.842;4.456;2022-08-04T15:14:08;28.20;99.90
23637;DHT22;11995;50.842;4.456;2022-08-04T15:16:34;28.20;99.90
23637;DHT22;11995;50.842;4.456;2022-08-04T15:19:02;28.10;99.90
23637;DHT22;11995;50.842;4.456;2022-08-04T15:21:29;28.30;99.90
23637;DHT22;11995;50.842;4.456;2022-08-04T15:23:56;27.90;99.90
23637;DHT22;11995;50.842;4.456;2022-08-04T15:28:55;27.90;99.90
23637;DHT22;11995;50.842;4.456;2022-08-04T15:31:23;28.00;99.90
23637;DHT22;11995;50.842;4.456;2022-08-04T15:33:51;28.10;99.90
23637;DHT22;11995;50.842;4.456;2022-08-04T15:36:41;28.20;99.90
23637;DHT22;11995;50.842;4.456;2022-08-04T15:47:08;28.10;99.90
23637;DHT22;11995;50.842;4.456;2022-08-04T15:49:20;28.20;99.90
23637;DHT22;11995;50.842;4.456;2022-08-04T15:51:59;28.20;99.90
23637;DHT22;11995;50.842;4.456;2022-08-04T15:54:26;28.30;99.90
23637;DHT22;11995;50.842;4.456;2022-08-04T15:56:53;28.40;99.90
23637;DHT22;11995;50.842;4.456;2022-08-04T16:04:54;28.40;99.90
23637;DHT22;11995;50.842;4.456;2022-08-04T16:07:18;28.50;99.90
23637;DHT22;11995;50.842;4.456;2022-08-04T16:09:45;28.40;99.90
23637;DHT22;11995;50.842;4.456;2022-08-04T16:12:22;28.30;99.90
23637;DHT22;11995;50.842;4.456;2022-08-04T16:14:40;28.40;99.90
23637;DHT22;11995;50.842;4.456;2022-08-04T16:17:13;28.40;99.90
23637;DHT22;11995;50.842;4.456;2022-08-04T16:22:30;28.70;99.90
23637;DHT22;11995;50.842;4.456;2022-08-04T16:24:43;28.80;99.90
23637;DHT22;11995;50.842;4.456;2022-08-04T16:27:11;28.60;99.90
23637;DHT22;11995;50.842;4.456;2022-08-04T16:29:41;28.40;99.90
23637;DHT22;11995;50.842;4.456;2022-08-04T16:32:12;28.30;99.90
23637;DHT22;11995;50.842;4.456;2022-08-04T16:34:40;28.20;99.90
23637;DHT22;11995;50.842;4.456;2022-08-04T16:37:08;28.30;99.90
23637;DHT22;11995;50.842;4.456;2022-08-04T16:39:35;28.00;99.90
23637;DHT22;11995;50.842;4.456;2022-08-04T16:44:57;27.80;99.90
23637;DHT22;11995;50.842;4.456;2022-08-04T16:47:15;27.70;99.90
23637;DHT22;11995;50.842;4.456;2022-08-04T16:49:44;27.90;99.90
23637;DHT22;11995;50.842;4.456;2022-08-04T16:52:10;27.90;99.90
23637;DHT22;11995;50.842;4.456;2022-08-04T16:54:37;27.80;99.90
23637;DHT22;11995;50.842;4.456;2022-08-04T16:57:08;27.70;99.90
23637;DHT22;11995;50.842;4.456;2022-08-04T16:59:36;27.70;99.90
23637;DHT22;11995;50.842;4.456;2022-08-04T17:02:03;27.70;99.90
23637;DHT22;11995;50.842;4.456;2022-08-04T17:04:32;27.70;99.90
23637;DHT22;11995;50.842;4.456;2022-08-04T17:07:00;27.70;99.90
23637;DHT22;11995;50.842;4.456;2022-08-04T17:09:27;27.60;99.90
23637;DHT22;11995;50.842;4.456;2022-08-04T17:11:55;27.50;99.90
23637;DHT22;11995;50.842;4.456;2022-08-04T17:14:22;27.30;99.90
23637;DHT22;11995;50.842;4.456;2022-08-04T17:16:50;27.20;99.90
23637;DHT22;11995;50.842;4.456;2022-08-04T17:19:17;27.00;99.90
23637;DHT22;11995;50.842;4.456;2022-08-04T17:21:44;26.90;99.90
23637;DHT22;11995;50.842;4.456;2022-08-04T17:24:11;26.90;99.90
23637;DHT22;11995;50.842;4.456;2022-08-04T17:26:38;26.80;99.90
23637;DHT22;11995;50.842;4.456;2022-08-04T17:29:05;26.90;99.90
23637;DHT22;11995;50.842;4.456;2022-08-04T17:31:32;26.90;99.90
23637;DHT22;11995;50.842;4.456;2022-08-04T17:34:01;26.90;99.90
23637;DHT22;11995;50.842;4.456;2022-08-04T17:36:29;26.90;99.90
23637;DHT22;11995;50.842;4.456;2022-08-04T17:38:57;26.90;99.90
23637;DHT22;11995;50.842;4.456;2022-08-04T17:41:25;26.90;99.90
23637;DHT22;11995;50.842;4.456;2022-08-04T17:43:53;26.70;99.90
23637;DHT22;11995;50.842;4.456;2022-08-04T17:49:05;26.20;99.90
23637;DHT22;11995;50.842;4.456;2022-08-04T17:54:04;26.20;99.90
23637;DHT22;11995;50.842;4.456;2022-08-04T17:59:06;26.10;99.90
23637;DHT22;11995;50.842;4.456;2022-08-04T18:01:40;26.20;99.90
23637;DHT22;11995;50.842;4.456;2022-08-04T18:06:54;25.70;99.90
23637;DHT22;11995;50.842;4.456;2022-08-04T18:09:22;25.40;99.90
23637;DHT22;11995;50.842;4.456;2022-08-04T18:11:53;25.50;99.90
23637;DHT22;11995;50.842;4.456;2022-08-04T18:14:20;25.50;99.90
23637;DHT22;11995;50.842;4.456;2022-08-04T18:16:47;25.40;99.90
23637;DHT22;11995;50.842;4.456;2022-08-04T18:19:14;25.50;99.90
23637;DHT22;11995;50.842;4.456;2022-08-04T18:21:41;25.30;99.90
23637;DHT22;11995;50.842;4.456;2022-08-04T18:24:11;25.30;99.90
23637;DHT22;11995;50.842;4.456;2022-08-04T18:26:38;25.30;99.90
23637;DHT22;11995;50.842;4.456;2022-08-04T18:29:05;25.30;99.90
23637;DHT22;11995;50.842;4.456;2022-08-04T18:31:33;25.30;99.90
23637;DHT22;11995;50.842;4.456;2022-08-04T18:34:02;25.20;99.90
23637;DHT22;11995;50.842;4.456;2022-08-04T18:36:30;25.10;99.90
23637;DHT22;11995;50.842;4.456;2022-08-04T18:39:02;25.20;99.90
23637;DHT22;11995;50.842;4.456;2022-08-04T18:41:26;25.00;99.90
23637;DHT22;11995;50.842;4.456;2022-08-04T18:43:56;24.90;99.90
23637;DHT22;11995;50.842;4.456;2022-08-04T18:46:23;24.60;99.90
23637;DHT22;11995;50.842;4.456;2022-08-04T18:48:50;24.50;99.90
23637;DHT22;11995;50.842;4.456;2022-08-04T18:51:17;24.70;99.90
23637;DHT22;11995;50.842;4.456;2022-08-04T18:53:44;24.70;99.90
23637;DHT22;11995;50.842;4.456;2022-08-04T18:56:12;24.70;99.90
23637;DHT22;11995;50.842;4.456;2022-08-04T18:58:38;24.70;99.90
23637;DHT22;11995;50.842;4.456;2022-08-04T19:01:05;24.90;99.90
23637;DHT22;11995;50.842;4.456;2022-08-04T19:03:33;24.80;99.90
23637;DHT22;11995;50.842;4.456;2022-08-04T19:06:00;24.60;99.90
23637;DHT22;11995;50.842;4.456;2022-08-04T19:08:30;24.60;99.90
23637;DHT22;11995;50.842;4.456;2022-08-04T19:10:58;24.60;99.90
23637;DHT22;11995;50.842;4.456;2022-08-04T19:13:25;24.50;99.90
23637;DHT22;11995;50.842;4.456;2022-08-04T19:15:52;24.40;99.90
23637;DHT22;11995;50.842;4.456;2022-08-04T19:18:19;24.40;99.90
23637;DHT22;11995;50.842;4.456;2022-08-04T19:20:46;24.20;99.90
23637;DHT22;11995;50.842;4.456;2022-08-04T19:25:59;23.90;99.90
23637;DHT22;11995;50.842;4.456;2022-08-04T19:28:27;23.60;99.90
23637;DHT22;11995;50.842;4.456;2022-08-04T19:30:55;23.40;99.90
23637;DHT22;11995;50.842;4.456;2022-08-04T19:33:22;23.20;99.90
23637;DHT22;11995;50.842;4.456;2022-08-04T19:35:50;22.90;99.90
23637;DHT22;11995;50.842;4.456;2022-08-04T19:38:17;22.70;99.90
23637;DHT22;11995;50.842;4.456;2022-08-04T19:40:45;22.40;99.90
23637;DHT22;11995;50.842;4.456;2022-08-04T19:43:12;22.40;99.90